Time;durP1;ratioP1;P1;durP2;ratioP2;P2;SDS_P1;SDS_P2;PMS_P1;PMS_P2;Temp;Humidity;BMP_temperature;BMP_pressure;BME280_temperature;BME280_humidity;BME280_pressure;Samples;Min_cycle;Max_cycle;Signal;HPM_P1;HPM_P2
2021/07/18 00:00:11;;;;;;;10.40;5.78;;;18.20;99.90;;;;;;5032113;28;20057;-83
2021/07/18 00:02:38;;;;;;;10.65;5.82;;;18.20;99.90;;;;;;5015019;28;20053;-84
2021/07/18 00:05:06;;;;;;;9.65;5.25;;;18.20;99.90;;;;;;5029201;28;20071;-84
2021/07/18 00:07:33;;;;;;;11.60;6.40;;;18.10;99.90;;;;;;5015417;28;20050;-84
2021/07/18 00:10:00;;;;;;;12.88;6.28;;;18.10;99.90;;;;;;5031240;28;20056;-84
2021/07/18 00:12:27;;;;;;;13.98;5.88;;;18.00;99.90;;;;;;5042495;28;20047;-84
2021/07/18 00:14:54;;;;;;;11.07;6.20;;;18.00;99.90;;;;;;5019099;28;20382;-84
2021/07/18 00:17:21;;;;;;;12.63;6.43;;;18.00;99.90;;;;;;5020176;28;20048;-84
2021/07/18 00:19:48;;;;;;;9.95;5.70;;;18.00;99.90;;;;;;5022783;28;20041;-84
2021/07/18 00:22:15;;;;;;;13.70;6.32;;;18.00;99.90;;;;;;5029884;28;20056;-84
2021/07/18 00:24:42;;;;;;;13.32;6.18;;;17.90;99.90;;;;;;5032174;28;20365;-84
2021/07/18 00:27:09;;;;;;;13.13;5.93;;;17.90;99.90;;;;;;5009209;28;20048;-84
2021/07/18 00:29:36;;;;;;;9.02;5.80;;;17.90;99.90;;;;;;5011490;28;20041;-84
2021/07/18 00:32:03;;;;;;;11.93;6.38;;;17.90;99.90;;;;;;5013432;28;20049;-84
2021/07/18 00:34:32;;;;;;;16.25;6.80;;;17.90;99.90;;;;;;5023045;28;20199;-84
2021/07/18 00:36:59;;;;;;;13.90;6.70;;;17.90;99.90;;;;;;5014273;28;20044;-85
2021/07/18 00:39:26;;;;;;;12.85;6.65;;;17.80;99.90;;;;;;5014416;28;20038;-84
2021/07/18 00:41:53;;;;;;;13.00;7.72;;;17.80;99.90;;;;;;5013531;28;20487;-84
2021/07/18 00:44:20;;;;;;;10.45;6.70;;;17.80;99.90;;;;;;5015240;28;20100;-84
2021/07/18 00:46:47;;;;;;;14.73;7.20;;;17.80;99.90;;;;;;5014975;28;20051;-84
2021/07/18 00:49:14;;;;;;;11.18;7.28;;;17.80;99.90;;;;;;5010859;28;20054;-84
2021/07/18 00:51:41;;;;;;;13.25;7.65;;;17.70;99.90;;;;;;5032434;28;20048;-84
2021/07/18 00:54:09;;;;;;;14.55;7.47;;;17.70;99.90;;;;;;5014131;28;20395;-84
2021/07/18 00:56:37;;;;;;;12.30;7.32;;;17.70;99.90;;;;;;5032300;28;20041;-84
2021/07/18 00:59:04;;;;;;;12.48;8.13;;;17.70;99.90;;;;;;5020014;28;20074;-84
2021/07/18 01:01:31;;;;;;;15.23;7.93;;;17.70;99.90;;;;;;5010872;28;20049;-84
2021/07/18 01:03:58;;;;;;;13.27;8.43;;;17.70;99.90;;;;;;5014192;28;20083;-84
2021/07/18 01:06:25;;;;;;;13.98;7.70;;;17.70;99.90;;;;;;5012801;28;20046;-84
2021/07/18 01:08:53;;;;;;;12.45;8.27;;;17.70;99.90;;;;;;5013873;28;20046;-84
2021/07/18 01:11:20;;;;;;;16.75;8.75;;;17.70;99.90;;;;;;5009587;28;20094;-84
2021/07/18 01:13:47;;;;;;;12.15;8.15;;;17.70;99.90;;;;;;5014143;28;20128;-84
2021/07/18 01:16:14;;;;;;;14.63;8.43;;;17.70;99.90;;;;;;5011479;28;20045;-84
2021/07/18 01:18:42;;;;;;;17.38;8.60;;;17.70;99.90;;;;;;5023132;28;20119;-84
2021/07/18 01:21:10;;;;;;;15.63;7.70;;;17.60;99.90;;;;;;5010384;28;20053;-84
2021/07/18 01:23:39;;;;;;;12.02;8.20;;;17.70;99.90;;;;;;5012209;28;20818;-84
2021/07/18 01:26:07;;;;;;;17.05;8.57;;;17.70;99.90;;;;;;5033146;28;20128;-84
2021/07/18 01:28:34;;;;;;;14.80;8.65;;;17.60;99.90;;;;;;5012808;28;20049;-84
2021/07/18 01:31:02;;;;;;;15.80;9.55;;;17.60;99.90;;;;;;4997396;28;20052;-84
2021/07/18 01:33:29;;;;;;;14.90;9.35;;;17.60;99.90;;;;;;5020946;28;20044;-84
2021/07/18 01:35:56;;;;;;;19.73;10.27;;;17.60;99.90;;;;;;4999601;28;20096;-84
2021/07/18 01:38:23;;;;;;;19.58;9.77;;;17.60;99.90;;;;;;4992650;28;20052;-84
2021/07/18 01:40:50;;;;;;;20.98;10.20;;;17.60;99.90;;;;;;5022591;28;20050;-84
2021/07/18 01:43:17;;;;;;;16.45;9.45;;;17.60;99.90;;;;;;5011112;28;20057;-84
2021/07/18 01:45:44;;;;;;;17.70;10.00;;;17.60;99.90;;;;;;4991315;28;20038;-84
2021/07/18 01:48:11;;;;;;;14.93;9.23;;;17.60;99.90;;;;;;4993140;28;20070;-84
2021/07/18 01:50:39;;;;;;;19.02;9.18;;;17.60;99.90;;;;;;4993956;28;20053;-84
2021/07/18 01:53:06;;;;;;;16.75;9.65;;;17.50;99.90;;;;;;4994447;28;20392;-84
2021/07/18 01:55:33;;;;;;;17.13;9.05;;;17.50;99.90;;;;;;5009487;28;20042;-84
2021/07/18 01:58:01;;;;;;;16.92;9.45;;;17.60;99.90;;;;;;4992758;28;20058;-85
2021/07/18 02:00:28;;;;;;;20.65;10.65;;;17.50;99.90;;;;;;4991572;28;20046;-84
2021/07/18 02:02:55;;;;;;;14.48;10.35;;;17.60;99.90;;;;;;4993009;28;20412;-84
2021/07/18 02:05:22;;;;;;;17.83;9.68;;;17.60;99.90;;;;;;4997030;28;20045;-84
2021/07/18 02:07:50;;;;;;;16.17;10.50;;;17.60;99.90;;;;;;4994353;28;20042;-83
2021/07/18 02:10:19;;;;;;;17.27;10.27;;;17.60;99.90;;;;;;4991888;28;20050;-84
2021/07/18 02:12:47;;;;;;;;;;;17.60;99.90;;;;;;4995224;28;20479;-84
2021/07/18 02:15:18;;;;;;;16.63;10.40;;;17.60;99.90;;;;;;5000872;28;20377;-84
2021/07/18 02:17:46;;;;;;;18.45;10.25;;;17.60;99.90;;;;;;4993075;28;20042;-83
2021/07/18 02:20:17;;;;;;;23.50;11.50;;;17.60;99.90;;;;;;4991816;28;20045;-84
2021/07/18 02:22:54;;;;;;;20.92;10.77;;;17.60;99.90;;;;;;5011081;28;20384;-84
2021/07/18 02:25:24;;;;;;;16.58;10.32;;;17.60;99.90;;;;;;5007907;28;20439;-84
2021/07/18 02:27:52;;;;;;;14.98;10.55;;;17.70;99.90;;;;;;4994676;28;20046;-84
2021/07/18 02:30:23;;;;;;;23.40;11.50;;;17.70;99.90;;;;;;4967810;28;20057;-84
2021/07/18 02:32:51;;;;;;;14.48;10.80;;;17.60;99.90;;;;;;4990500;28;20129;-84
2021/07/18 02:35:20;;;;;;;18.20;11.65;;;17.70;99.90;;;;;;5010300;28;20092;-84
2021/07/18 02:37:47;;;;;;;;;;;17.70;99.90;;;;;;5018957;28;20053;-84
2021/07/18 02:40:16;;;;;;;15.73;10.57;;;17.60;99.90;;;;;;4991128;28;19921;-84
2021/07/18 02:42:44;;;;;;;18.00;11.77;;;17.70;99.90;;;;;;4991454;28;20053;-84
2021/07/18 02:45:13;;;;;;;18.83;11.40;;;17.60;99.90;;;;;;5008894;28;20046;-84
2021/07/18 02:47:42;;;;;;;21.20;12.25;;;17.70;99.90;;;;;;4989150;28;20636;-84
2021/07/18 02:50:10;;;;;;;;;;;17.60;99.90;;;;;;4991984;28;20050;-84
2021/07/18 02:52:41;;;;;;;20.95;11.80;;;17.60;99.90;;;;;;4994732;28;19925;-84
2021/07/18 02:55:09;;;;;;;22.10;12.25;;;17.60;99.90;;;;;;5012287;28;20065;-84
2021/07/18 02:57:36;;;;;;;17.55;12.35;;;17.60;99.90;;;;;;4995823;28;20038;-84
2021/07/18 03:00:09;;;;;;;20.55;11.65;;;17.60;99.90;;;;;;5014295;28;20046;-84
2021/07/18 03:02:36;;;;;;;19.92;12.48;;;17.60;99.90;;;;;;4993837;28;20053;-84
2021/07/18 03:05:04;;;;;;;20.40;12.43;;;17.60;99.90;;;;;;4994059;28;20068;-84
2021/07/18 03:07:32;;;;;;;25.77;12.23;;;17.50;99.90;;;;;;4997263;28;20046;-84
2021/07/18 03:09:59;;;;;;;22.38;12.65;;;17.50;99.90;;;;;;5011484;28;20046;-83
2021/07/18 03:12:28;;;;;;;17.70;12.60;;;17.60;99.90;;;;;;4992889;28;20041;-84
2021/07/18 03:14:55;;;;;;;;;;;17.60;99.90;;;;;;5013306;28;20515;-84
2021/07/18 03:17:22;;;;;;;20.42;11.98;;;17.50;99.90;;;;;;4991527;28;19922;-84
2021/07/18 03:19:49;;;;;;;21.70;13.38;;;17.50;99.90;;;;;;5002718;28;20049;-84
2021/07/18 03:22:15;;;;;;;18.63;12.48;;;17.50;99.90;;;;;;4993575;28;20045;-83
2021/07/18 03:24:42;;;;;;;19.35;11.95;;;17.50;99.90;;;;;;4996167;28;20061;-83
2021/07/18 03:27:09;;;;;;;22.30;12.60;;;17.50;99.90;;;;;;4994235;28;20045;-84
2021/07/18 03:29:36;;;;;;;18.00;12.00;;;17.60;99.90;;;;;;5014879;28;20050;-84
2021/07/18 03:32:04;;;;;;;23.52;12.55;;;17.50;99.90;;;;;;4990812;28;20050;-84
2021/07/18 03:34:32;;;;;;;19.73;12.73;;;17.50;99.90;;;;;;4989744;28;20132;-84
2021/07/18 03:36:59;;;;;;;21.33;13.07;;;17.50;99.90;;;;;;5020536;28;20045;-83
2021/07/18 03:39:26;;;;;;;20.17;12.85;;;17.50;99.90;;;;;;5015790;28;20042;-83
2021/07/18 03:41:53;;;;;;;20.30;13.23;;;17.50;99.90;;;;;;5032437;28;20072;-83
2021/07/18 03:44:20;;;;;;;27.30;13.57;;;17.50;99.90;;;;;;5014265;28;20417;-84
2021/07/18 03:46:47;;;;;;;22.70;13.80;;;17.50;99.90;;;;;;5017440;28;20262;-84
2021/07/18 03:49:15;;;;;;;21.88;12.77;;;17.50;99.90;;;;;;5014397;28;20045;-84
2021/07/18 03:51:42;;;;;;;18.10;12.93;;;17.40;99.90;;;;;;5029709;28;20054;-84
2021/07/18 03:54:09;;;;;;;21.42;13.65;;;17.40;99.90;;;;;;5014382;28;20314;-85
2021/07/18 03:56:36;;;;;;;21.75;13.40;;;17.40;99.90;;;;;;5020800;28;20065;-85
2021/07/18 03:59:03;;;;;;;19.65;13.55;;;17.40;99.90;;;;;;5022609;28;20060;-85
2021/07/18 04:01:30;;;;;;;20.88;13.05;;;17.40;99.90;;;;;;5014376;28;20053;-85
2021/07/18 04:03:58;;;;;;;18.23;13.15;;;17.40;99.90;;;;;;5014223;28;20085;-84
2021/07/18 04:06:25;;;;;;;19.75;14.10;;;17.40;99.90;;;;;;5013906;28;20046;-84
2021/07/18 04:08:52;;;;;;;23.40;14.45;;;17.40;99.90;;;;;;5026674;28;20438;-84
2021/07/18 04:11:19;;;;;;;16.23;13.70;;;17.40;99.90;;;;;;5020462;28;20509;-85
2021/07/18 04:13:46;;;;;;;22.27;13.82;;;17.40;99.90;;;;;;5025518;28;20057;-85
2021/07/18 04:16:13;;;;;;;22.85;13.80;;;17.40;99.90;;;;;;5031148;28;20045;-85
2021/07/18 04:18:40;;;;;;;22.35;14.82;;;17.40;99.90;;;;;;5018250;28;20129;-85
2021/07/18 04:21:07;;;;;;;22.85;14.57;;;17.40;99.90;;;;;;5031533;28;20272;-85
2021/07/18 04:23:34;;;;;;;24.13;15.45;;;17.40;99.90;;;;;;5014640;28;20041;-85
2021/07/18 04:26:01;;;;;;;24.15;15.63;;;17.30;99.90;;;;;;5014195;28;20115;-85
2021/07/18 04:28:28;;;;;;;23.20;15.50;;;17.30;99.90;;;;;;5008415;28;20042;-85
2021/07/18 04:30:55;;;;;;;26.00;16.23;;;17.30;99.90;;;;;;5029817;28;20053;-85
2021/07/18 04:33:22;;;;;;;24.17;16.17;;;17.30;99.90;;;;;;5012402;28;20395;-85
2021/07/18 04:35:49;;;;;;;24.75;15.73;;;17.30;99.90;;;;;;5009553;28;20072;-85
2021/07/18 04:38:16;;;;;;;25.58;15.30;;;17.30;99.90;;;;;;5006382;28;20494;-85
2021/07/18 04:40:43;;;;;;;23.88;16.08;;;17.30;99.90;;;;;;5012046;28;20045;-85
2021/07/18 04:43:10;;;;;;;25.83;16.25;;;17.30;99.90;;;;;;5011515;28;20041;-85
2021/07/18 04:45:37;;;;;;;24.38;15.88;;;17.30;99.90;;;;;;5013750;28;20116;-85
2021/07/18 04:48:04;;;;;;;25.55;16.40;;;17.30;99.90;;;;;;5014343;28;20050;-85
2021/07/18 04:50:31;;;;;;;25.00;16.30;;;17.30;99.90;;;;;;5030815;28;20064;-84
2021/07/18 04:52:58;;;;;;;20.55;16.00;;;17.30;99.90;;;;;;5022436;28;20479;-85
2021/07/18 04:55:25;;;;;;;18.70;15.00;;;17.30;99.90;;;;;;5011642;28;20048;-85
2021/07/18 04:57:52;;;;;;;22.15;15.52;;;17.40;99.90;;;;;;5018095;28;20107;-84
2021/07/18 05:00:21;;;;;;;27.30;15.88;;;17.30;99.90;;;;;;5012260;28;20107;-84
2021/07/18 05:02:49;;;;;;;22.67;16.45;;;17.40;99.90;;;;;;5014556;28;20050;-85
2021/07/18 05:05:18;;;;;;;22.45;14.90;;;17.40;99.90;;;;;;5013893;28;20105;-85
2021/07/18 05:07:48;;;;;;;21.42;14.52;;;17.40;99.90;;;;;;5029866;28;20515;-85
2021/07/18 05:10:19;;;;;;;25.67;15.90;;;17.50;99.90;;;;;;5015368;28;20103;-84
2021/07/18 05:12:51;;;;;;;24.20;15.30;;;17.50;99.90;;;;;;5011791;28;20045;-85
2021/07/18 05:15:21;;;;;;;23.05;15.23;;;17.50;99.90;;;;;;5021568;28;20403;-85
2021/07/18 05:17:48;;;;;;;20.77;15.25;;;17.60;99.90;;;;;;5014434;28;20049;-85
2021/07/18 05:20:17;;;;;;;17.20;14.35;;;17.60;99.90;;;;;;5012600;28;20049;-85
2021/07/18 05:22:44;;;;;;;22.00;14.43;;;17.70;99.90;;;;;;5032455;28;20048;-85
2021/07/18 05:25:11;;;;;;;22.48;14.40;;;17.70;99.90;;;;;;5011937;28;20045;-85
2021/07/18 05:27:39;;;;;;;20.95;13.80;;;17.80;99.90;;;;;;5013830;28;20122;-85
2021/07/18 05:30:08;;;;;;;22.77;15.07;;;17.80;99.90;;;;;;5029526;28;20490;-85
2021/07/18 05:32:36;;;;;;;21.23;14.38;;;17.90;99.90;;;;;;5011829;28;20466;-85
2021/07/18 05:35:05;;;;;;;27.17;14.00;;;17.90;99.90;;;;;;5009203;28;20042;-85
2021/07/18 05:37:32;;;;;;;20.73;13.30;;;18.00;99.90;;;;;;5022915;28;20041;-85
2021/07/18 05:39:58;;;;;;;21.17;13.38;;;18.10;99.90;;;;;;5027610;28;20260;-85
2021/07/18 05:42:25;;;;;;;19.00;13.25;;;18.20;99.90;;;;;;5016913;28;20131;-85
2021/07/18 05:44:52;;;;;;;19.88;13.38;;;18.30;99.90;;;;;;5011844;28;20056;-85
2021/07/18 05:47:19;;;;;;;21.52;13.25;;;18.40;99.90;;;;;;5012381;28;20482;-85
2021/07/18 05:49:47;;;;;;;19.13;12.77;;;18.40;99.90;;;;;;5009952;28;20465;-85
2021/07/18 05:52:13;;;;;;;18.88;12.50;;;18.50;99.90;;;;;;5010552;28;20542;-86
2021/07/18 05:54:40;;;;;;;23.02;12.85;;;18.60;99.90;;;;;;5020074;28;20057;-85
2021/07/18 05:57:07;;;;;;;17.05;12.73;;;18.70;99.90;;;;;;5027525;28;20068;-86
2021/07/18 05:59:34;;;;;;;23.05;13.55;;;18.80;99.90;;;;;;5005579;28;20041;-85
2021/07/18 06:02:01;;;;;;;20.20;12.98;;;18.80;99.90;;;;;;5011833;28;20055;-86
2021/07/18 06:04:29;;;;;;;18.67;12.50;;;18.90;99.90;;;;;;5026194;28;20053;-85
2021/07/18 06:06:56;;;;;;;17.77;11.70;;;19.00;99.90;;;;;;5011812;28;20169;-85
2021/07/18 06:09:23;;;;;;;20.42;11.60;;;19.00;99.90;;;;;;5006711;28;20053;-85
2021/07/18 06:11:50;;;;;;;18.15;12.02;;;19.10;99.90;;;;;;5005731;28;20045;-85
2021/07/18 06:14:17;;;;;;;20.17;12.50;;;19.20;99.90;;;;;;5001269;28;20102;-85
2021/07/18 06:16:44;;;;;;;20.23;11.73;;;19.30;99.90;;;;;;5007726;28;20068;-85
2021/07/18 06:19:11;;;;;;;18.42;11.25;;;19.30;99.90;;;;;;5012928;28;20047;-85
2021/07/18 06:21:38;;;;;;;17.90;10.98;;;19.40;99.90;;;;;;5009324;28;20045;-86
2021/07/18 06:24:05;;;;;;;19.15;12.13;;;19.50;99.90;;;;;;5010125;28;20116;-86
2021/07/18 06:26:32;;;;;;;18.02;11.57;;;19.60;99.90;;;;;;5010577;28;20420;-86
2021/07/18 06:29:02;;;;;;;19.27;11.40;;;19.70;99.90;;;;;;5011098;28;20479;-85
2021/07/18 06:31:29;;;;;;;13.90;11.02;;;19.80;99.90;;;;;;5017012;28;20041;-85
2021/07/18 06:33:57;;;;;;;14.82;11.73;;;19.80;99.90;;;;;;5009555;28;20529;-85
2021/07/18 06:36:23;;;;;;;18.17;11.18;;;19.90;99.90;;;;;;5025875;28;20053;-85
2021/07/18 06:38:50;;;;;;;17.33;11.10;;;20.00;99.90;;;;;;5007129;28;20057;-85
2021/07/18 06:41:17;;;;;;;18.77;11.25;;;20.10;99.90;;;;;;5006865;28;20033;-85
2021/07/18 06:43:44;;;;;;;18.15;10.55;;;20.20;99.90;;;;;;5008577;28;20442;-86
2021/07/18 06:46:27;;;;;;;17.55;10.15;;;20.30;99.90;;;;;;5028686;28;20053;-85
2021/07/18 06:48:54;;;;;;;15.55;9.68;;;20.40;99.90;;;;;;5010407;28;20147;-85
2021/07/18 06:51:21;;;;;;;16.45;9.30;;;20.50;99.90;;;;;;5015203;28;20045;-85
2021/07/18 06:53:48;;;;;;;16.58;9.27;;;20.60;99.90;;;;;;5009793;28;20058;-85
2021/07/18 06:56:27;;;;;;;16.98;8.35;;;20.70;99.90;;;;;;5008209;28;20037;-85
2021/07/18 06:58:54;;;;;;;13.05;9.20;;;20.80;99.90;;;;;;5007510;28;20486;-85
2021/07/18 07:01:21;;;;;;;13.73;8.50;;;21.00;99.90;;;;;;5002089;28;20411;-86
2021/07/18 07:03:48;;;;;;;13.05;7.78;;;21.10;99.90;;;;;;5012255;28;20120;-85
2021/07/18 07:06:15;;;;;;;13.95;8.23;;;21.20;99.90;;;;;;5001062;28;21116;-85
2021/07/18 07:08:42;;;;;;;13.38;7.78;;;21.30;99.90;;;;;;5021514;28;20045;-85
2021/07/18 07:11:09;;;;;;;13.07;8.50;;;21.40;99.90;;;;;;5004792;28;20042;-85
2021/07/18 07:13:36;;;;;;;14.20;7.80;;;21.60;99.90;;;;;;5008229;28;20048;-85
2021/07/18 07:16:04;;;;;;;12.30;8.15;;;21.70;99.90;;;;;;5022503;28;20052;-85
2021/07/18 07:18:31;;;;;;;14.32;7.65;;;21.90;99.90;;;;;;5021456;28;20049;-86
2021/07/18 07:20:58;;;;;;;13.77;7.55;;;22.00;99.90;;;;;;5009348;28;20484;-85
2021/07/18 07:23:25;;;;;;;10.30;7.63;;;22.10;99.90;;;;;;5008144;28;20048;-85
2021/07/18 07:25:52;;;;;;;13.07;8.48;;;22.20;99.90;;;;;;4999930;28;20442;-85
2021/07/18 07:28:22;;;;;;;12.85;7.03;;;22.40;99.90;;;;;;5010834;28;20709;-86
2021/07/18 07:30:49;;;;;;;14.63;8.20;;;22.50;99.90;;;;;;5010011;28;20136;-85
2021/07/18 07:33:16;;;;;;;14.48;8.30;;;22.70;99.90;;;;;;5007924;28;20045;-86
2021/07/18 07:35:43;;;;;;;12.23;6.78;;;22.80;99.90;;;;;;5010602;28;20724;-85
2021/07/18 07:38:11;;;;;;;10.77;7.35;;;22.90;99.90;;;;;;5025944;28;20050;-86
2021/07/18 07:40:38;;;;;;;13.80;7.32;;;23.10;99.90;;;;;;5029043;28;20045;-85
2021/07/18 07:43:06;;;;;;;12.82;7.20;;;23.20;99.90;;;;;;5008272;28;20107;-86
2021/07/18 07:45:33;;;;;;;13.70;6.82;;;23.40;99.90;;;;;;5002342;28;20041;-85
2021/07/18 07:48:00;;;;;;;12.50;6.57;;;23.50;99.90;;;;;;5026202;28;20354;-85
2021/07/18 07:50:28;;;;;;;9.52;6.07;;;23.60;99.90;;;;;;5008106;28;20124;-85
2021/07/18 07:52:55;;;;;;;12.60;7.00;;;23.80;99.90;;;;;;5025086;28;20042;-85
2021/07/18 07:55:22;;;;;;;13.48;6.68;;;23.90;99.90;;;;;;5004256;28;20052;-85
2021/07/18 07:57:49;;;;;;;11.00;6.75;;;24.00;99.90;;;;;;5028770;28;20045;-86
2021/07/18 08:00:17;;;;;;;10.55;6.95;;;24.20;99.90;;;;;;5012010;28;20046;-86
2021/07/18 08:02:47;;;;;;;10.32;6.15;;;24.30;99.90;;;;;;5011549;28;21190;-85
2021/07/18 08:05:14;;;;;;;12.30;6.78;;;24.40;99.90;;;;;;5009502;28;20521;-86
2021/07/18 08:07:41;;;;;;;12.88;6.72;;;24.50;99.90;;;;;;5029604;28;20057;-86
2021/07/18 08:10:11;;;;;;;9.55;6.28;;;24.60;99.90;;;;;;5012874;28;20054;-85
2021/07/18 08:12:40;;;;;;;10.10;5.88;;;24.80;99.90;;;;;;5012823;28;20080;-86
2021/07/18 08:15:09;;;;;;;12.57;6.60;;;24.80;99.90;;;;;;5007457;28;20380;-84
2021/07/18 08:17:37;;;;;;;11.68;5.50;;;25.00;99.90;;;;;;5024955;28;20103;-84
2021/07/18 08:20:06;;;;;;;12.38;5.47;;;25.10;99.90;;;;;;5025411;28;20045;-85
2021/07/18 08:22:33;;;;;;;11.50;5.97;;;25.20;99.90;;;;;;5003486;28;20037;-85
2021/07/18 08:25:01;;;;;;;10.55;6.30;;;25.40;99.90;;;;;;5010232;28;20095;-84
2021/07/18 08:27:33;;;;;;;10.30;6.15;;;25.50;99.90;;;;;;5023836;28;20052;-84
2021/07/18 08:30:05;;;;;;;7.95;5.95;;;25.60;99.90;;;;;;5008199;28;20050;-84
2021/07/18 08:32:33;;;;;;;12.30;5.93;;;25.70;99.90;;;;;;5012358;28;20046;-86
2021/07/18 08:35:06;;;;;;;9.90;5.65;;;25.70;99.90;;;;;;5008041;28;20065;-85
2021/07/18 08:37:37;;;;;;;9.73;6.03;;;25.70;99.90;;;;;;5010447;28;20057;-85
2021/07/18 08:40:06;;;;;;;10.27;5.95;;;25.90;99.90;;;;;;5008768;28;20103;-83
2021/07/18 08:42:35;;;;;;;6.47;5.40;;;26.00;99.90;;;;;;5027299;28;20045;-84
2021/07/18 08:45:05;;;;;;;10.63;5.40;;;26.10;99.90;;;;;;5009054;28;20049;-86
2021/07/18 08:47:33;;;;;;;11.23;7.22;;;26.20;99.90;;;;;;5012475;28;20048;-85
2021/07/18 08:50:02;;;;;;;8.35;5.60;;;26.30;99.90;;;;;;5004063;28;20042;-84
2021/07/18 08:52:30;;;;;;;9.48;6.38;;;26.30;99.90;;;;;;5006067;28;20468;-84
2021/07/18 08:55:04;;;;;;;9.10;5.57;;;26.40;99.90;;;;;;5005571;28;20132;-85
2021/07/18 08:57:32;;;;;;;10.55;6.18;;;26.50;99.90;;;;;;5006842;28;20084;-85
2021/07/18 08:59:59;;;;;;;7.30;5.38;;;26.60;99.90;;;;;;5004326;28;20042;-84
2021/07/18 09:02:26;;;;;;;7.97;5.93;;;26.70;99.90;;;;;;5003815;28;20038;-85
2021/07/18 09:04:53;;;;;;;13.88;5.93;;;26.80;99.90;;;;;;5004926;28;20050;-85
2021/07/18 09:07:21;;;;;;;8.20;5.18;;;26.90;99.90;;;;;;5005881;28;20064;-85
2021/07/18 09:09:49;;;;;;;9.30;6.10;;;27.10;99.90;;;;;;5021881;28;20050;-85
2021/07/18 09:12:17;;;;;;;7.38;5.95;;;27.20;99.90;;;;;;5006073;28;20357;-85
2021/07/18 09:14:49;;;;;;;9.70;5.57;;;27.30;99.90;;;;;;5004455;28;20062;-85
2021/07/18 09:17:20;;;;;;;10.88;6.15;;;27.30;99.90;;;;;;5023892;28;20050;-85
2021/07/18 09:19:47;;;;;;;11.20;6.32;;;27.40;99.90;;;;;;5005127;28;20072;-84
2021/07/18 09:22:16;;;;;;;10.00;5.68;;;27.50;99.90;;;;;;5003733;28;20045;-84
2021/07/18 09:24:49;;;;;;;10.55;6.47;;;27.50;99.90;;;;;;5005347;28;20139;-84
2021/07/18 09:27:30;;;;;;;7.93;6.10;;;27.60;99.90;;;;;;5006580;28;20049;-84
2021/07/18 09:30:05;;;;;;;9.38;5.88;;;27.70;99.90;;;;;;5005286;28;20053;-85
2021/07/18 09:32:34;;;;;;;10.65;6.00;;;27.70;99.90;;;;;;5006880;28;20050;-85
2021/07/18 09:35:06;;;;;;;11.15;6.75;;;27.80;99.90;;;;;;5007967;28;20037;-84
2021/07/18 09:37:35;;;;;;;9.13;6.47;;;27.80;99.90;;;;;;5021417;28;20046;-85
2021/07/18 09:40:03;;;;;;;9.23;6.13;;;27.80;99.90;;;;;;5010987;28;20060;-85
2021/07/18 09:42:56;;;;;;;9.75;5.90;;;27.90;99.90;;;;;;5010265;28;20479;-85
2021/07/18 09:45:25;;;;;;;13.20;6.40;;;28.00;99.90;;;;;;5007066;28;20395;-84
2021/07/18 09:48:06;;;;;;;10.70;6.50;;;28.00;99.90;;;;;;5026102;28;20510;-85
2021/07/18 09:50:41;;;;;;;11.93;6.20;;;28.10;99.90;;;;;;5009698;28;20037;-85
2021/07/18 09:53:21;;;;;;;8.82;6.05;;;28.10;99.90;;;;;;5008959;28;20045;-85
2021/07/18 09:56:08;;;;;;;8.30;6.03;;;28.20;99.90;;;;;;5007508;28;20062;-85
2021/07/18 09:58:37;;;;;;;9.30;6.57;;;28.30;99.90;;;;;;5021577;28;20049;-85
2021/07/18 10:01:07;;;;;;;10.07;6.20;;;28.40;99.90;;;;;;5012186;28;20064;-85
2021/07/18 10:03:35;;;;;;;9.15;7.03;;;28.40;99.90;;;;;;5026489;28;20077;-85
2021/07/18 10:06:17;;;;;;;9.90;6.40;;;28.50;99.90;;;;;;5008240;28;20045;-85
2021/07/18 10:08:54;;;;;;;7.60;5.45;;;28.50;99.90;;;;;;5006241;28;20142;-85
2021/07/18 10:11:24;;;;;;;7.40;6.45;;;28.50;99.90;;;;;;5009150;28;20045;-85
2021/07/18 10:13:52;;;;;;;8.07;5.55;;;28.50;99.90;;;;;;5011909;28;20057;-84
2021/07/18 10:16:21;;;;;;;10.20;6.40;;;28.60;99.90;;;;;;5024219;28;20045;-85
2021/07/18 10:18:50;;;;;;;8.15;5.75;;;28.60;99.90;;;;;;5008091;28;20502;-85
2021/07/18 10:21:20;;;;;;;7.68;5.55;;;28.70;99.90;;;;;;5005888;28;20060;-85
2021/07/18 10:23:53;;;;;;;12.15;5.97;;;28.70;99.90;;;;;;5010180;28;20041;-85
2021/07/18 10:26:24;;;;;;;12.73;6.10;;;28.80;99.90;;;;;;5009942;28;20045;-85
2021/07/18 10:28:52;;;;;;;10.45;6.18;;;28.90;99.90;;;;;;5003659;28;20128;-85
2021/07/18 10:31:51;;;;;;;7.53;5.80;;;28.90;99.90;;;;;;5018451;28;20459;-85
2021/07/18 10:34:24;;;;;;;8.05;5.45;;;28.90;99.60;;;;;;5022951;28;20139;-84
2021/07/18 10:36:51;;;;;;;9.57;5.43;;;28.90;99.70;;;;;;5016575;28;20046;-84
2021/07/18 10:39:35;;;;;;;9.75;5.50;;;28.90;99.50;;;;;;5004681;28;20058;-84
2021/07/18 10:42:07;;;;;;;5.68;5.10;;;29.00;99.00;;;;;;5010886;28;20041;-85
2021/07/18 10:44:48;;;;;;;6.97;5.15;;;28.90;99.00;;;;;;5008280;28;20415;-84
2021/07/18 10:47:16;;;;;;;6.00;4.85;;;29.00;98.60;;;;;;5017707;28;20049;-84
2021/07/18 10:49:58;;;;;;;7.35;5.10;;;29.00;98.50;;;;;;5023951;28;20041;-84
2021/07/18 10:52:32;;;;;;;8.07;5.07;;;29.00;98.50;;;;;;5005481;28;20494;-85
2021/07/18 10:55:01;;;;;;;8.50;5.50;;;29.00;98.20;;;;;;5005511;28;20080;-84
2021/07/18 10:57:32;;;;;;;6.47;5.00;;;29.00;98.30;;;;;;5026939;28;20049;-85
2021/07/18 11:00:22;;;;;;;7.13;5.00;;;29.00;97.90;;;;;;5026246;28;20060;-84
2021/07/18 11:03:32;;;;;;;5.55;4.93;;;29.10;97.60;;;;;;5004395;28;20058;-85
2021/07/18 11:06:19;;;;;;;7.65;5.15;;;29.20;97.30;;;;;;4926244;29;20055;-86
2021/07/18 11:09:18;;;;;;;9.60;5.13;;;29.20;97.60;;;;;;4920852;29;20056;-85
2021/07/18 11:11:55;;;;;;;9.43;5.43;;;29.30;97.70;;;;;;4920025;29;21315;-85
2021/07/18 11:14:23;;;;;;;8.10;4.88;;;29.30;97.70;;;;;;4913914;29;20047;-85
2021/07/18 11:16:58;;;;;;;6.57;4.75;;;29.30;97.70;;;;;;4930807;29;20047;-86
2021/07/18 11:19:34;;;;;;;7.95;4.68;;;29.40;97.70;;;;;;4928070;29;20044;-85
2021/07/18 11:22:03;;;;;;;9.13;5.32;;;29.40;97.50;;;;;;4930847;29;20052;-85
2021/07/18 11:24:55;;;;;;;8.20;5.18;;;29.50;97.30;;;;;;4916144;29;20123;-85
2021/07/18 11:27:27;;;;;;;5.13;4.53;;;29.50;95.80;;;;;;4928070;29;20044;-85
2021/07/18 11:29:55;;;;;;;7.70;4.20;;;29.50;96.80;;;;;;4913364;29;20115;-85
2021/07/18 11:32:23;;;;;;;;;;;29.50;97.00;;;;;;4910533;29;20052;-86
2021/07/18 11:34:51;;;;;;;5.28;4.53;;;29.50;96.30;;;;;;4927666;29;19957;-85
2021/07/18 11:37:18;;;;;;;8.38;5.03;;;29.50;97.00;;;;;;4909448;29;20058;-85
2021/07/18 11:39:45;;;;;;;5.53;4.32;;;29.60;97.00;;;;;;4931522;29;20048;-86
2021/07/18 11:42:15;;;;;;;6.63;4.70;;;29.60;96.70;;;;;;4988742;28;20064;-86
2021/07/18 11:44:45;;;;;;;6.97;5.05;;;29.70;96.70;;;;;;5012824;28;20095;-86
2021/07/18 11:47:15;;;;;;;8.63;4.95;;;29.80;96.60;;;;;;5016151;28;20037;-86
2021/07/18 11:49:47;;;;;;;6.22;5.05;;;29.80;96.50;;;;;;5031089;28;20127;-86
2021/07/18 11:52:16;;;;;;;6.32;4.20;;;29.80;96.00;;;;;;5027101;28;20042;-86
2021/07/18 11:54:43;;;;;;;6.22;3.78;;;29.80;95.60;;;;;;5018257;28;20041;-85
2021/07/18 11:57:13;;;;;;;5.17;3.73;;;29.80;95.10;;;;;;5012240;28;20049;-86
2021/07/18 11:59:42;;;;;;;4.82;4.22;;;29.80;95.00;;;;;;5009007;28;20280;-85
2021/07/18 12:02:10;;;;;;;4.68;4.00;;;29.90;95.10;;;;;;5012706;28;20052;-86
2021/07/18 12:04:40;;;;;;;6.78;4.45;;;30.00;95.20;;;;;;5010512;28;20072;-86
2021/07/18 12:07:12;;;;;;;5.10;4.30;;;30.00;95.00;;;;;;5010845;28;20049;-85
2021/07/18 12:09:42;;;;;;;7.05;4.15;;;30.10;94.40;;;;;;5007921;28;20053;-85
2021/07/18 12:12:13;;;;;;;6.22;4.40;;;30.10;94.10;;;;;;5027670;28;20502;-86
2021/07/18 12:14:41;;;;;;;6.25;4.38;;;30.10;94.10;;;;;;5006896;28;20041;-86
2021/07/18 12:17:10;;;;;;;4.78;4.28;;;30.10;94.50;;;;;;5012722;28;20041;-86
2021/07/18 12:19:38;;;;;;;4.93;4.20;;;30.00;94.80;;;;;;5006768;28;20041;-86
2021/07/18 12:22:12;;;;;;;6.50;4.00;;;30.00;94.20;;;;;;5009085;28;20049;-86
2021/07/18 12:24:48;;;;;;;7.13;4.30;;;30.10;94.10;;;;;;5006028;28;20399;-85
2021/07/18 12:27:16;;;;;;;4.88;4.30;;;30.00;93.80;;;;;;5011601;28;20046;-85
2021/07/18 12:29:53;;;;;;;;;;;29.90;93.70;;;;;;5009072;28;20049;-86
2021/07/18 12:32:25;;;;;;;7.00;4.22;;;29.80;93.90;;;;;;5008284;28;20275;-85
2021/07/18 12:34:55;;;;;;;5.25;4.50;;;29.90;94.60;;;;;;5007879;28;20042;-85
2021/07/18 12:37:24;;;;;;;5.60;4.00;;;30.00;94.60;;;;;;5027458;28;20050;-86
2021/07/18 12:39:59;;;;;;;6.53;4.22;;;30.00;94.80;;;;;;5026489;28;20050;-86
2021/07/18 12:42:32;;;;;;;7.47;4.15;;;30.10;94.00;;;;;;5020172;28;20038;-88
2021/07/18 12:45:00;;;;;;;7.32;4.20;;;30.00;93.60;;;;;;5004714;28;20053;-85
2021/07/18 12:47:38;;;;;;;6.10;4.00;;;29.90;92.60;;;;;;5001334;28;20041;-86